createdAt,value
2022-08-08T00:00:52.315Z,47.40
2022-08-08T00:03:32.141Z,47.40
2022-08-08T00:06:28.670Z,47.50
2022-08-08T00:09:35.203Z,47.50
2022-08-08T00:12:24.636Z,47.60
2022-08-08T00:15:56.696Z,47.70
2022-08-08T00:18:54.291Z,47.80
2022-08-08T00:21:48.226Z,47.70
2022-08-08T00:24:36.264Z,47.80
2022-08-08T00:27:26.197Z,47.70
2022-08-08T00:30:17.612Z,47.70
2022-08-08T00:33:24.117Z,47.80
2022-08-08T00:36:19.233Z,48.00
2022-08-08T00:39:36.211Z,47.90
2022-08-08T00:42:31.499Z,48.10
2022-08-08T00:45:54.221Z,48.00
2022-08-08T00:49:01.258Z,48.10
2022-08-08T00:51:51.023Z,48.20
2022-08-08T00:54:59.201Z,48.20
2022-08-08T00:58:30.837Z,48.30
2022-08-08T01:01:39.266Z,48.40
2022-08-08T01:05:28.982Z,48.30
2022-08-08T01:08:40.207Z,48.40
2022-08-08T01:11:36.405Z,48.60
2022-08-08T01:14:54.186Z,48.70
2022-08-08T01:18:51.134Z,48.80
2022-08-08T01:22:10.308Z,48.80
2022-08-08T01:25:16.686Z,49.00
2022-08-08T01:28:27.719Z,49.10
2022-08-08T01:32:13.422Z,49.20
2022-08-08T01:35:14.206Z,49.30
2022-08-08T01:38:18.286Z,49.30
2022-08-08T01:41:11.769Z,49.40
2022-08-08T01:44:09.627Z,49.20
2022-08-08T01:48:14.771Z,49.40
2022-08-08T01:50:48.789Z,49.40
2022-08-08T01:55:15.493Z,49.50
2022-08-08T01:57:18.227Z,49.60
2022-08-08T02:00:38.282Z,49.70
2022-08-08T02:03:57.621Z,49.70
2022-08-08T02:07:27.282Z,49.80
2022-08-08T02:10:45.045Z,49.90
2022-08-08T02:13:54.209Z,50.00
2022-08-08T02:16:59.239Z,49.90
2022-08-08T02:20:16.173Z,49.90
2022-08-08T02:23:36.789Z,50.00
2022-08-08T02:26:45.227Z,50.00
2022-08-08T02:30:04.093Z,50.10
2022-08-08T02:33:14.221Z,50.10
2022-08-08T02:36:50.212Z,50.10
2022-08-08T02:40:12.109Z,50.10
2022-08-08T02:44:38.105Z,50.40
2022-08-08T02:46:36.205Z,50.50
2022-08-08T02:50:08.219Z,50.50
2022-08-08T02:53:59.506Z,50.70
2022-08-08T02:56:50.927Z,50.70
2022-08-08T03:00:26.370Z,50.70
2022-08-08T03:05:00.631Z,51.80
2022-08-08T03:07:09.222Z,50.90
2022-08-08T03:10:32.547Z,51.00
2022-08-08T03:15:57.188Z,51.00
2022-08-08T03:17:04.218Z,51.00
2022-08-08T03:20:17.240Z,51.20
2022-08-08T03:23:00.616Z,51.10
2022-08-08T03:25:53.212Z,51.00
2022-08-08T03:28:40.897Z,51.20
2022-08-08T03:32:05.979Z,51.20
2022-08-08T03:34:47.361Z,51.20
2022-08-08T03:38:54.150Z,51.30
2022-08-08T03:40:34.334Z,51.40
2022-08-08T03:43:23.214Z,51.40
2022-08-08T03:46:13.316Z,51.50
2022-08-08T03:49:58.846Z,51.40
2022-08-08T03:52:12.993Z,51.50
2022-08-08T03:55:02.465Z,51.40
2022-08-08T03:58:36.269Z,52.50
2022-08-08T04:01:23.183Z,51.60
2022-08-08T04:04:11.339Z,51.50
2022-08-08T04:07:06.233Z,51.50
2022-08-08T04:10:05.430Z,51.60
2022-08-08T04:12:48.248Z,51.60
2022-08-08T04:15:38.782Z,51.40
2022-08-08T04:18:20.238Z,51.40
2022-08-08T04:21:07.239Z,51.60
2022-08-08T04:24:05.251Z,51.70
2022-08-08T04:26:58.728Z,52.70
2022-08-08T04:29:38.284Z,51.70
2022-08-08T04:32:34.003Z,51.60
2022-08-08T04:35:15.298Z,51.60
2022-08-08T04:38:02.232Z,51.60
2022-08-08T04:40:54.197Z,51.70
2022-08-08T04:43:46.259Z,51.50
2022-08-08T04:46:36.249Z,51.40
2022-08-08T04:49:29.030Z,51.30
2022-08-08T04:52:27.405Z,51.30
2022-08-08T04:55:19.295Z,51.30
2022-08-08T04:58:12.024Z,51.30
2022-08-08T05:00:54.291Z,51.30
2022-08-08T05:04:09.876Z,51.30
2022-08-08T05:06:48.119Z,51.30
2022-08-08T05:09:39.229Z,51.30
2022-08-08T05:12:21.276Z,51.30
2022-08-08T05:15:08.247Z,51.30
2022-08-08T05:18:00.257Z,51.30
2022-08-08T05:20:50.015Z,51.30
2022-08-08T05:23:41.220Z,51.20
2022-08-08T05:26:27.535Z,51.20
2022-08-08T05:29:15.225Z,51.20
2022-08-08T05:32:03.246Z,51.20
2022-08-08T05:34:57.249Z,51.10
2022-08-08T05:37:51.988Z,51.20
2022-08-08T05:40:58.080Z,51.10
2022-08-08T05:44:03.925Z,51.10
2022-08-08T05:46:51.448Z,51.10
2022-08-08T05:49:32.259Z,51.10
2022-08-08T05:52:35.530Z,51.10
2022-08-08T05:55:16.247Z,51.10
2022-08-08T05:58:17.920Z,50.90
2022-08-08T06:01:03.238Z,50.90
2022-08-08T06:03:56.344Z,50.70
2022-08-08T06:06:38.238Z,50.60
2022-08-08T06:09:58.187Z,50.50
2022-08-08T06:12:42.731Z,50.50
2022-08-08T06:15:50.034Z,50.30
2022-08-08T06:18:38.007Z,50.30
2022-08-08T06:21:48.937Z,50.30
2022-08-08T06:24:35.973Z,50.10
2022-08-08T06:27:24.251Z,50.10
2022-08-08T06:30:20.430Z,49.90
2022-08-08T06:33:13.154Z,49.90
2022-08-08T06:36:06.640Z,49.70
2022-08-08T06:39:01.272Z,49.70
2022-08-08T06:41:55.159Z,49.60
2022-08-08T06:44:55.247Z,49.40
2022-08-08T06:47:52.479Z,49.20
2022-08-08T06:50:44.261Z,49.10
2022-08-08T06:53:38.842Z,49.10
2022-08-08T06:56:27.249Z,49.00
2022-08-08T06:59:20.245Z,48.90
2022-08-08T07:02:27.440Z,48.80
2022-08-08T07:05:24.903Z,48.40
2022-08-08T07:08:24.316Z,48.20
2022-08-08T07:11:09.273Z,47.90
2022-08-08T07:14:11.317Z,47.80
2022-08-08T07:17:09.227Z,47.40
2022-08-08T07:20:12.246Z,47.00
2022-08-08T07:23:15.272Z,46.80
2022-08-08T07:26:10.293Z,46.40
2022-08-08T07:28:51.265Z,46.30
2022-08-08T07:31:43.253Z,45.70
2022-08-08T07:34:31.360Z,45.00
2022-08-08T07:37:25.267Z,44.20
2022-08-08T07:40:06.490Z,43.30
2022-08-08T07:42:58.270Z,42.50
2022-08-08T07:46:05.339Z,41.50
2022-08-08T07:48:48.383Z,40.90
2022-08-08T07:51:45.252Z,40.00
2022-08-08T07:55:03.270Z,39.60
2022-08-08T07:57:54.331Z,39.10
2022-08-08T08:00:49.303Z,38.40
2022-08-08T08:04:06.278Z,38.10
2022-08-08T08:06:53.431Z,37.60
2022-08-08T08:09:45.261Z,37.20
2022-08-08T08:12:35.454Z,36.90
2022-08-08T08:15:33.273Z,36.50
2022-08-08T08:18:14.572Z,36.10
2022-08-08T08:21:01.277Z,35.70
2022-08-08T08:23:51.111Z,36.00
2022-08-08T08:26:38.290Z,35.80
2022-08-08T08:29:19.538Z,36.10
2022-08-08T08:32:06.334Z,36.50
2022-08-08T08:34:52.283Z,36.30
2022-08-08T08:38:05.831Z,36.10
2022-08-08T08:40:40.387Z,35.60
2022-08-08T08:43:31.372Z,35.30
2022-08-08T08:46:25.742Z,35.00
2022-08-08T08:49:12.285Z,34.70
2022-08-08T08:51:56.353Z,34.40
2022-08-08T08:54:43.273Z,34.20
2022-08-08T08:57:31.322Z,34.10
2022-08-08T09:00:19.195Z,33.90
2022-08-08T09:03:12.266Z,33.80
2022-08-08T09:06:01.295Z,33.70
2022-08-08T09:08:53.339Z,33.50
2022-08-08T09:11:47.375Z,33.40
2022-08-08T09:14:48.293Z,33.30
2022-08-08T09:17:41.837Z,33.30
2022-08-08T09:21:56.801Z,33.40
2022-08-08T09:23:47.791Z,33.50
2022-08-08T09:27:03.278Z,34.20
2022-08-08T09:30:14.781Z,34.70
2022-08-08T09:33:54.221Z,35.40
2022-08-08T09:36:05.294Z,37.00
2022-08-08T09:39:02.345Z,36.20
2022-08-08T09:42:14.139Z,36.70
2022-08-08T09:45:55.035Z,37.00
2022-08-08T09:48:27.921Z,37.30
2022-08-08T09:51:28.299Z,37.60
2022-08-08T09:54:35.731Z,37.80
2022-08-08T09:57:46.015Z,38.10
2022-08-08T10:00:52.984Z,38.30
2022-08-08T10:03:39.619Z,38.50
2022-08-08T10:06:29.687Z,38.70
2022-08-08T10:09:16.285Z,38.80
2022-08-08T10:12:26.491Z,38.80
2022-08-08T10:15:17.898Z,39.00
2022-08-08T10:18:06.721Z,39.00
2022-08-08T10:21:03.501Z,39.10
2022-08-08T10:23:58.586Z,39.20
2022-08-08T10:26:59.430Z,39.20
2022-08-08T10:30:15.953Z,39.30
2022-08-08T10:33:04.312Z,39.10
2022-08-08T10:36:07.578Z,39.90
2022-08-08T10:38:51.301Z,37.80
2022-08-08T10:42:13.058Z,37.20
2022-08-08T10:44:45.883Z,36.70
2022-08-08T10:47:34.801Z,36.50
2022-08-08T10:50:42.560Z,36.20
2022-08-08T10:53:22.345Z,37.10
2022-08-08T10:56:32.125Z,35.70
2022-08-08T10:59:21.301Z,35.50
2022-08-08T11:02:02.870Z,35.30
2022-08-08T11:04:58.306Z,35.10
2022-08-08T11:08:38.593Z,35.00
2022-08-08T11:11:59.863Z,35.20
2022-08-08T11:14:16.139Z,35.60
2022-08-08T11:16:57.304Z,35.60
2022-08-08T11:19:42.363Z,35.80
2022-08-08T11:22:38.315Z,36.00
2022-08-08T11:25:53.000Z,36.30
2022-08-08T11:28:33.319Z,36.60
2022-08-08T11:31:46.899Z,36.90
2022-08-08T11:34:52.568Z,37.20
2022-08-08T11:38:38.758Z,37.40
2022-08-08T11:40:51.729Z,37.60
2022-08-08T11:43:39.335Z,37.60
2022-08-08T11:46:33.310Z,37.30
2022-08-08T11:49:18.374Z,37.30
2022-08-08T11:52:06.313Z,37.00
2022-08-08T11:54:50.385Z,36.80
2022-08-08T11:57:41.312Z,36.80
2022-08-08T12:00:25.386Z,36.70
2022-08-08T12:03:23.423Z,36.70
2022-08-08T12:06:03.382Z,36.70
2022-08-08T12:08:51.339Z,36.60
2022-08-08T12:11:31.365Z,36.30
2022-08-08T12:14:29.529Z,36.30
2022-08-08T12:17:16.331Z,36.20
2022-08-08T12:20:04.864Z,36.20
2022-08-08T12:23:00.335Z,36.30
2022-08-08T12:25:52.698Z,36.20
2022-08-08T12:28:36.407Z,36.30
2022-08-08T12:31:53.919Z,36.50
2022-08-08T12:35:01.399Z,36.70
2022-08-08T12:38:01.405Z,36.80
2022-08-08T12:40:55.913Z,36.90
2022-08-08T12:43:46.173Z,36.80
2022-08-08T12:46:45.346Z,36.70
2022-08-08T12:49:43.415Z,36.60
2022-08-08T12:52:38.436Z,36.80
2022-08-08T12:55:35.453Z,36.80
2022-08-08T12:58:42.336Z,36.80
2022-08-08T13:01:56.617Z,37.00
2022-08-08T13:04:38.381Z,37.10
2022-08-08T13:08:02.136Z,37.10
2022-08-08T13:10:28.140Z,37.30
2022-08-08T13:13:15.339Z,37.30
2022-08-08T13:16:02.334Z,37.30
2022-08-08T13:18:58.438Z,37.40
2022-08-08T13:21:55.678Z,37.40
2022-08-08T13:24:52.325Z,37.60
2022-08-08T13:27:37.139Z,37.70
2022-08-08T13:30:26.436Z,37.70
2022-08-08T13:33:06.454Z,37.80
2022-08-08T13:35:53.349Z,37.80
2022-08-08T13:38:33.516Z,37.80
2022-08-08T13:41:21.842Z,37.90
2022-08-08T13:44:01.377Z,37.80
2022-08-08T13:47:07.077Z,38.00
2022-08-08T13:50:35.036Z,38.10
2022-08-08T13:53:22.643Z,38.10
2022-08-08T13:56:13.358Z,38.00
2022-08-08T13:59:01.424Z,38.10
2022-08-08T14:01:52.881Z,38.10
2022-08-08T14:04:52.708Z,38.00
2022-08-08T14:07:35.434Z,37.90
2022-08-08T14:10:32.919Z,37.90
2022-08-08T14:13:33.287Z,38.20
2022-08-08T14:16:22.336Z,38.20
2022-08-08T14:19:10.661Z,38.20
2022-08-08T14:21:57.342Z,38.20
2022-08-08T14:24:45.365Z,38.20
2022-08-08T14:27:34.186Z,38.30
2022-08-08T14:30:18.997Z,38.20
2022-08-08T14:33:12.885Z,38.20
2022-08-08T14:36:20.338Z,38.30
2022-08-08T14:39:11.848Z,38.30
2022-08-08T14:41:55.039Z,38.40
2022-08-08T14:44:48.364Z,38.30
2022-08-08T14:47:38.422Z,38.20
2022-08-08T14:50:38.087Z,38.40
2022-08-08T14:53:30.358Z,38.40
2022-08-08T14:56:17.373Z,38.50
2022-08-08T14:59:04.415Z,38.60
2022-08-08T15:02:04.383Z,39.80
2022-08-08T15:04:51.361Z,38.80
2022-08-08T15:07:39.410Z,38.90
2022-08-08T15:10:29.378Z,39.00
2022-08-08T15:13:15.478Z,39.10
2022-08-08T15:16:03.882Z,39.00
2022-08-08T15:18:53.360Z,39.00
2022-08-08T15:21:33.864Z,39.00
2022-08-08T15:24:24.384Z,39.00
2022-08-08T15:27:57.570Z,39.00
2022-08-08T15:30:20.389Z,39.00
2022-08-08T15:33:07.662Z,39.00
2022-08-08T15:35:48.379Z,39.10
2022-08-08T15:38:35.417Z,39.10
2022-08-08T15:41:24.578Z,39.10
2022-08-08T15:44:13.657Z,39.00
2022-08-08T15:47:00.372Z,39.00
2022-08-08T15:49:48.919Z,39.10
2022-08-08T15:52:29.500Z,39.20
2022-08-08T15:55:19.382Z,39.10
2022-08-08T15:58:14.368Z,39.10
2022-08-08T16:01:01.402Z,39.10
2022-08-08T16:03:41.422Z,39.10
2022-08-08T16:06:31.036Z,39.10
2022-08-08T16:13:11.732Z,39.10
2022-08-08T16:13:27.172Z,39.10
2022-08-08T16:15:18.396Z,39.20
2022-08-08T16:18:11.789Z,39.20
2022-08-08T16:21:00.193Z,39.30
2022-08-08T16:23:47.398Z,39.30
2022-08-08T16:26:36.432Z,39.40
2022-08-08T16:29:19.378Z,39.50
2022-08-08T16:32:27.747Z,39.60
2022-08-08T16:35:08.389Z,39.70
2022-08-08T16:37:55.376Z,39.70
2022-08-08T16:40:35.497Z,39.90
2022-08-08T16:43:22.387Z,39.80
2022-08-08T16:46:36.335Z,39.90
2022-08-08T16:49:10.386Z,39.90
2022-08-08T16:55:06.020Z,40.40
2022-08-08T16:55:27.996Z,39.80
2022-08-08T16:58:14.659Z,39.90
2022-08-08T17:01:05.646Z,40.00
2022-08-08T17:04:00.858Z,40.20
2022-08-08T17:06:44.225Z,40.30
2022-08-08T17:09:34.862Z,40.40
2022-08-08T17:12:31.797Z,40.40
2022-08-08T17:15:20.204Z,40.50
2022-08-08T17:18:03.538Z,40.60
2022-08-08T17:20:51.389Z,40.60
2022-08-08T17:23:57.922Z,40.70
2022-08-08T17:26:39.402Z,40.70
2022-08-08T17:29:26.481Z,40.80
2022-08-08T17:32:07.981Z,40.90
2022-08-08T17:35:51.966Z,41.20
2022-08-08T17:37:58.369Z,41.30
2022-08-08T17:40:45.561Z,41.30
2022-08-08T17:43:28.392Z,41.30
2022-08-08T17:46:55.354Z,41.30
2022-08-08T17:49:42.524Z,41.60
2022-08-08T17:52:31.397Z,41.60
2022-08-08T17:56:05.118Z,41.70
2022-08-08T17:58:23.410Z,41.70
2022-08-08T18:01:07.459Z,41.70
2022-08-08T18:03:57.382Z,41.70
2022-08-08T18:06:44.524Z,41.80
2022-08-08T18:09:26.734Z,41.90
2022-08-08T18:12:19.400Z,41.90
2022-08-08T18:15:02.707Z,42.00
2022-08-08T18:18:09.882Z,42.10
2022-08-08T18:20:59.203Z,42.10
2022-08-08T18:23:47.105Z,42.30
2022-08-08T18:26:42.394Z,42.30
2022-08-08T18:29:27.458Z,42.50
2022-08-08T18:32:17.423Z,42.50
2022-08-08T18:34:58.738Z,42.70
2022-08-08T18:37:47.883Z,42.70
2022-08-08T18:40:35.070Z,43.00
2022-08-08T18:43:22.398Z,42.90
2022-08-08T18:46:55.464Z,43.00
2022-08-08T18:49:12.394Z,43.10
2022-08-08T18:51:55.793Z,43.20
2022-08-08T18:54:42.394Z,43.20
2022-08-08T18:57:37.290Z,43.20
2022-08-08T19:00:28.402Z,43.40
2022-08-08T19:03:09.574Z,43.50
2022-08-08T19:05:56.409Z,43.60
2022-08-08T19:08:43.395Z,43.80
2022-08-08T19:11:24.904Z,43.70
2022-08-08T19:14:20.418Z,43.70
2022-08-08T19:17:07.472Z,43.90
2022-08-08T19:20:02.083Z,44.10
2022-08-08T19:22:49.406Z,45.20
2022-08-08T19:26:19.767Z,44.20
2022-08-08T19:28:36.693Z,44.30
2022-08-08T19:31:23.423Z,44.40
2022-08-08T19:34:29.968Z,44.50
2022-08-08T19:37:18.428Z,44.70
2022-08-08T19:40:31.039Z,44.70
2022-08-08T19:43:19.670Z,44.80
2022-08-08T19:46:02.429Z,44.90
2022-08-08T19:48:50.395Z,45.00
2022-08-08T19:51:34.670Z,45.10
2022-08-08T19:54:30.402Z,45.20
2022-08-08T19:57:10.513Z,45.40
2022-08-08T20:00:01.410Z,45.50
2022-08-08T20:02:42.497Z,45.70
2022-08-08T20:06:14.229Z,45.70
2022-08-08T20:08:32.013Z,46.00
2022-08-08T20:11:18.414Z,46.00
2022-08-08T20:14:32.574Z,46.20
2022-08-08T20:17:08.416Z,46.20
2022-08-08T20:19:58.410Z,46.40
2022-08-08T20:22:40.827Z,46.40
2022-08-08T20:25:30.063Z,46.60
2022-08-08T20:28:18.737Z,46.70
2022-08-08T20:31:07.412Z,46.70
2022-08-08T20:34:30.628Z,46.80
2022-08-08T20:36:57.423Z,46.80
2022-08-08T20:39:41.702Z,46.90
2022-08-08T20:42:42.422Z,47.00
2022-08-08T20:45:54.907Z,47.00
2022-08-08T20:48:30.436Z,47.10
2022-08-08T20:51:17.428Z,47.00
2022-08-08T20:54:04.248Z,47.10
2022-08-08T20:57:16.436Z,47.10
2022-08-08T21:00:05.635Z,47.10
2022-08-08T21:02:52.577Z,47.20
2022-08-08T21:05:49.218Z,47.20
2022-08-08T21:08:49.254Z,47.30
2022-08-08T21:11:51.742Z,47.30
2022-08-08T21:14:34.679Z,47.20
2022-08-08T21:17:21.477Z,47.30
2022-08-08T21:20:03.795Z,47.20
2022-08-08T21:22:57.422Z,47.20
2022-08-08T21:25:44.438Z,47.40
2022-08-08T21:28:35.642Z,47.40
2022-08-08T21:31:23.785Z,47.40
2022-08-08T21:34:03.494Z,47.50
2022-08-08T21:37:01.009Z,47.40
2022-08-08T21:39:57.169Z,47.50
2022-08-08T21:42:44.440Z,47.40
2022-08-08T21:47:59.339Z,47.50
2022-08-08T21:48:49.190Z,47.60
2022-08-08T21:54:33.386Z,47.60
2022-08-08T21:55:01.382Z,47.60
2022-08-08T21:58:04.264Z,47.70
2022-08-08T22:00:55.076Z,47.70
2022-08-08T22:03:36.420Z,47.80
2022-08-08T22:06:28.655Z,47.80
2022-08-08T22:09:20.445Z,48.00
2022-08-08T22:12:14.950Z,48.00
2022-08-08T22:15:05.433Z,48.10
2022-08-08T22:17:53.478Z,48.00
2022-08-08T22:20:34.439Z,48.10
2022-08-08T22:23:32.642Z,48.30
2022-08-08T22:26:26.597Z,48.30
2022-08-08T22:29:58.672Z,48.30
2022-08-08T22:32:15.479Z,48.50
2022-08-08T22:35:04.485Z,49.40
2022-08-08T22:37:54.147Z,48.70
2022-08-08T22:40:35.005Z,48.70
2022-08-08T22:43:21.426Z,48.70
2022-08-08T22:46:02.949Z,48.70
2022-08-08T22:48:51.436Z,48.70
2022-08-08T22:51:42.829Z,48.80
2022-08-08T22:54:33.311Z,48.90
2022-08-08T22:57:44.232Z,48.90
2022-08-08T23:00:36.613Z,48.90
2022-08-08T23:03:19.512Z,49.00
2022-08-08T23:06:08.542Z,49.00
2022-08-08T23:08:56.014Z,50.10
2022-08-08T23:12:28.618Z,49.00
2022-08-08T23:14:53.235Z,49.10
2022-08-08T23:17:46.744Z,49.20
2022-08-08T23:20:34.436Z,49.30
2022-08-08T23:23:14.908Z,49.30
2022-08-08T23:26:04.462Z,49.40
2022-08-08T23:28:51.454Z,49.50
2022-08-08T23:31:36.744Z,49.50
2022-08-08T23:34:25.443Z,49.50
2022-08-08T23:37:17.480Z,49.60
2022-08-08T23:40:05.558Z,49.60
2022-08-08T23:42:53.448Z,49.70
2022-08-08T23:49:03.467Z,49.60
2022-08-08T23:49:03.739Z,49.70
2022-08-08T23:52:05.037Z,49.70
2022-08-08T23:55:07.190Z,49.80
2022-08-08T23:58:08.456Z,49.90
